Time;durP1;ratioP1;P1;durP2;ratioP2;P2;SDS_P1;SDS_P2;PMS_P1;PMS_P2;Temp;Humidity;BMP_temperature;BMP_pressure;BME280_temperature;BME280_humidity;BME280_pressure;Samples;Min_cycle;Max_cycle;Signal;HPM_P1;HPM_P2
2022/08/11 00:01:48;;;;;;;6.63;4.95;;;23.30;99.90;;;;;;5053126;28;20108;-72
2022/08/11 00:04:17;;;;;;;8.18;5.38;;;23.30;99.90;;;;;;5052934;28;20159;-71
2022/08/11 00:06:45;;;;;;;8.90;5.30;;;23.30;99.90;;;;;;5052792;28;20094;-72
2022/08/11 00:09:19;;;;;;;7.90;5.20;;;23.20;99.90;;;;;;5052798;28;20017;-71
2022/08/11 00:11:55;;;;;;;9.50;5.75;;;23.10;99.90;;;;;;5051499;28;20051;-71
2022/08/11 00:14:25;;;;;;;7.13;5.38;;;23.10;99.90;;;;;;5053096;28;20418;-71
2022/08/11 00:17:04;;;;;;;6.03;5.10;;;23.10;99.90;;;;;;5052923;28;20036;-71
2022/08/11 00:19:34;;;;;;;8.02;5.10;;;23.10;99.90;;;;;;5053306;28;20079;-71
2022/08/11 00:22:02;;;;;;;8.13;4.68;;;23.10;99.90;;;;;;5053400;28;20338;-71
2022/08/11 00:24:39;;;;;;;6.63;4.80;;;23.20;99.90;;;;;;5052447;28;20032;-71
2022/08/11 00:27:06;;;;;;;6.30;5.10;;;23.20;99.90;;;;;;5052494;28;20417;-72
2022/08/11 00:29:33;;;;;;;6.93;4.57;;;23.30;99.90;;;;;;5052665;28;20032;-72
2022/08/11 00:32:03;;;;;;;5.68;4.78;;;23.30;99.90;;;;;;5052459;28;20095;-72
2022/08/11 00:34:34;;;;;;;7.28;4.82;;;23.20;99.90;;;;;;5052542;28;20061;-71
2022/08/11 00:37:09;;;;;;;7.93;4.75;;;23.20;99.90;;;;;;5053008;28;20132;-71
2022/08/11 00:39:43;;;;;;;8.38;4.63;;;23.20;99.90;;;;;;5052588;28;20021;-71
2022/08/11 00:42:51;;;;;;;7.47;4.82;;;23.20;99.90;;;;;;5052940;28;20445;-71
2022/08/11 00:45:41;;;;;;;6.88;5.13;;;23.20;99.90;;;;;;5052615;28;20072;-70
2022/08/11 00:48:31;;;;;;;5.50;4.60;;;23.20;99.90;;;;;;5052710;28;20116;-71
2022/08/11 00:51:22;;;;;;;7.43;4.70;;;23.20;99.90;;;;;;5052645;28;20179;-71
2022/08/11 00:53:51;;;;;;;7.70;5.30;;;23.20;99.90;;;;;;5052338;28;20076;-71
2022/08/11 00:56:55;;;;;;;6.32;4.88;;;23.10;99.90;;;;;;5052153;28;20028;-71
2022/08/11 00:59:48;;;;;;;8.70;5.18;;;23.10;99.90;;;;;;5050592;28;20048;-71
2022/08/11 01:02:37;;;;;;;6.45;5.15;;;23.20;99.90;;;;;;5052603;28;20106;-72
2022/08/11 01:05:13;;;;;;;6.85;4.82;;;23.20;99.90;;;;;;5052380;28;20112;-71
2022/08/11 01:07:56;;;;;;;6.35;5.13;;;23.20;99.90;;;;;;5052475;28;20028;-71
2022/08/11 01:10:44;;;;;;;7.75;4.85;;;23.20;99.90;;;;;;5052396;28;20437;-71
2022/08/11 01:13:28;;;;;;;6.07;4.90;;;23.20;99.90;;;;;;5051826;28;20082;-71
2022/08/11 01:16:51;;;;;;;6.35;4.90;;;23.20;99.90;;;;;;5051989;28;20024;-72
2022/08/11 01:19:36;;;;;;;7.05;4.78;;;23.10;99.90;;;;;;5051112;28;20045;-71
2022/08/11 01:22:20;;;;;;;6.47;5.10;;;23.10;99.90;;;;;;5051839;28;20032;-71
2022/08/11 01:25:28;;;;;;;11.18;5.40;;;23.00;99.90;;;;;;5050210;28;20049;-71
2022/08/11 01:28:40;;;;;;;7.40;5.18;;;22.90;99.90;;;;;;5051697;28;20120;-71
2022/08/11 01:31:37;;;;;;;8.00;4.90;;;22.90;99.90;;;;;;5041249;28;20052;-71
2022/08/11 01:34:33;;;;;;;6.05;5.28;;;22.90;99.90;;;;;;5049916;28;20498;-71
2022/08/11 01:37:24;;;;;;;6.78;5.40;;;22.90;99.90;;;;;;5051543;28;20078;-71
2022/08/11 01:40:07;;;;;;;5.82;5.18;;;23.00;99.90;;;;;;5051331;28;20052;-71
2022/08/11 01:46:15;;;;;;;7.63;4.90;;;22.90;99.90;;;;;;5051255;28;20060;-71
2022/08/11 01:48:43;;;;;;;7.25;5.00;;;22.90;99.90;;;;;;5051463;28;20040;-72
2022/08/11 01:51:54;;;;;;;6.80;5.10;;;22.90;99.90;;;;;;5051169;28;20020;-71
2022/08/11 01:54:45;;;;;;;5.55;4.65;;;22.90;99.90;;;;;;5046149;28;20025;-73
2022/08/11 01:57:36;;;;;;;8.50;4.97;;;22.90;99.90;;;;;;5051454;28;20488;-71
2022/08/11 02:00:15;;;;;;;6.05;4.57;;;22.90;99.90;;;;;;5051206;28;20446;-72
2022/08/11 02:03:08;;;;;;;6.10;4.68;;;22.90;99.90;;;;;;5051296;28;20478;-72
2022/08/11 02:05:46;;;;;;;6.07;4.97;;;23.00;99.90;;;;;;5051145;28;20107;-71
2022/08/11 02:08:30;;;;;;;6.88;4.68;;;23.00;99.90;;;;;;5049554;28;20029;-71
2022/08/11 02:11:29;;;;;;;5.60;4.20;;;23.10;99.90;;;;;;5051143;28;20029;-71
2022/08/11 02:14:36;;;;;;;7.10;4.45;;;23.10;99.90;;;;;;5051129;28;20049;-71
2022/08/11 02:17:37;;;;;;;5.93;4.03;;;23.20;99.90;;;;;;5050456;28;20120;-71
2022/08/11 02:26:09;;;;;;;5.40;4.20;;;23.20;99.90;;;;;;5049562;28;20053;-72
2022/08/11 02:29:09;;;;;;;6.10;4.32;;;23.20;99.90;;;;;;5050791;28;20017;-71
2022/08/11 02:35:00;;;;;;;7.32;4.55;;;23.20;99.90;;;;;;5057262;28;20048;-71
2022/08/11 02:37:32;;;;;;;5.80;4.50;;;23.10;99.90;;;;;;5057154;28;20021;-70
2022/08/11 02:39:58;;;;;;;5.07;4.18;;;23.10;99.90;;;;;;5057187;28;20108;-71
2022/08/11 02:42:45;;;;;;;6.00;4.43;;;23.10;99.90;;;;;;5056789;28;20060;-71
2022/08/11 02:45:16;;;;;;;6.40;4.50;;;23.10;99.90;;;;;;5057279;28;20131;-71
2022/08/11 02:51:19;;;;;;;5.35;4.50;;;23.10;99.90;;;;;;5056257;28;20043;-71
2022/08/11 02:54:04;;;;;;;6.10;4.55;;;23.00;99.90;;;;;;5053615;28;20033;-70
2022/08/11 02:57:24;;;;;;;7.32;4.47;;;23.00;99.90;;;;;;5057517;28;20029;-70
2022/08/11 03:00:10;;;;;;;6.03;4.70;;;23.00;99.90;;;;;;5035130;28;20160;-70
2022/08/11 03:03:06;;;;;;;6.15;4.88;;;22.90;99.90;;;;;;5035279;28;20510;-70
2022/08/11 03:05:48;;;;;;;5.95;4.60;;;22.90;99.90;;;;;;5035283;28;20405;-71
2022/08/11 03:08:23;;;;;;;8.55;4.57;;;22.90;99.90;;;;;;5035205;28;20025;-71
2022/08/11 03:17:40;;;;;;;5.60;4.47;;;22.90;99.90;;;;;;5034883;28;20036;-71
2022/08/11 03:20:15;;;;;;;7.55;5.40;;;22.90;99.90;;;;;;5035597;28;20254;-71
2022/08/11 03:22:51;;;;;;;7.05;4.78;;;22.90;99.90;;;;;;5035663;28;20088;-71
2022/08/11 03:25:35;;;;;;;6.20;5.03;;;22.90;99.90;;;;;;5034634;28;20547;-71
2022/08/11 03:28:23;;;;;;;7.07;5.22;;;22.80;99.90;;;;;;5035029;28;20148;-70
2022/08/11 03:31:08;;;;;;;6.75;4.82;;;22.80;99.90;;;;;;5034970;28;20038;-71
2022/08/11 03:36:46;;;;;;;6.55;5.13;;;22.70;99.90;;;;;;5056761;28;20048;-70
2022/08/11 03:39:49;;;;;;;5.95;5.00;;;22.60;99.90;;;;;;5057760;28;20421;-70
2022/08/11 03:42:23;;;;;;;8.73;5.15;;;22.60;99.90;;;;;;5051819;28;20029;-70
2022/08/11 03:45:17;;;;;;;6.43;5.13;;;22.50;99.90;;;;;;5054305;28;20037;-71
2022/08/11 03:48:07;;;;;;;6.43;5.10;;;22.50;99.90;;;;;;5054485;28;20523;-71
2022/08/11 03:50:51;;;;;;;7.65;5.07;;;22.50;99.90;;;;;;5053839;28;20439;-71
2022/08/11 03:53:48;;;;;;;7.38;4.97;;;22.40;99.90;;;;;;5051897;28;20040;-72
2022/08/11 03:56:39;;;;;;;10.18;5.13;;;22.40;99.90;;;;;;5053513;28;20092;-71
2022/08/11 03:59:48;;;;;;;7.05;4.78;;;22.40;99.90;;;;;;5053663;28;20369;-71
2022/08/11 04:02:25;;;;;;;5.82;4.38;;;22.40;99.90;;;;;;5054140;28;20025;-72
2022/08/11 04:05:29;;;;;;;7.68;4.85;;;22.50;99.90;;;;;;5054844;28;20053;-71
2022/08/11 04:07:55;;;;;;;6.40;4.45;;;22.50;99.90;;;;;;5052030;28;20037;-72
2022/08/11 04:10:42;;;;;;;8.05;4.57;;;22.50;99.90;;;;;;5054202;28;20132;-72
2022/08/11 04:13:21;;;;;;;5.32;4.68;;;22.50;99.90;;;;;;5053203;28;20090;-71
2022/08/11 04:16:06;;;;;;;7.55;4.80;;;22.50;99.90;;;;;;5053217;28;20025;-71
2022/08/11 04:18:50;;;;;;;7.75;4.70;;;22.50;99.90;;;;;;5053454;28;20039;-71
2022/08/11 04:21:54;;;;;;;7.18;5.30;;;22.40;99.90;;;;;;5054492;28;20063;-71
2022/08/11 04:24:58;;;;;;;8.07;4.90;;;22.30;99.90;;;;;;5052575;28;20043;-71
2022/08/11 04:27:42;;;;;;;8.02;5.03;;;22.30;99.90;;;;;;5053691;28;20060;-71
2022/08/11 04:30:22;;;;;;;6.38;5.05;;;22.30;99.90;;;;;;5054216;28;20103;-71
2022/08/11 04:33:36;;;;;;;7.47;5.10;;;22.20;99.90;;;;;;5053948;28;20037;-71
2022/08/11 04:40:19;;;;;;;6.53;4.80;;;22.30;99.90;;;;;;4954787;29;20102;-71
2022/08/11 04:43:20;;;;;;;5.55;4.70;;;22.30;99.90;;;;;;4954717;29;20100;-71
2022/08/11 04:46:09;;;;;;;7.47;4.68;;;22.40;99.90;;;;;;4954641;29;20073;-71
2022/08/11 05:01:41;;;;;;;6.57;4.68;;;22.90;99.90;;;;;;4954580;29;20083;-72
2022/08/11 05:07:51;;;;;;;6.85;4.38;;;23.10;99.90;;;;;;4967442;28;20058;-72
2022/08/11 05:10:32;;;;;;;4.93;4.20;;;23.10;99.90;;;;;;4998951;28;20040;-71
2022/08/11 05:27:09;;;;;;;6.95;4.70;;;23.20;99.90;;;;;;5053874;28;20539;-71
2022/08/11 05:36:52;;;;;;;8.35;3.10;;;28.80;99.90;;;;;;5052971;28;20036;-72
2022/08/11 05:56:20;;;;;;;4.72;3.60;;;28.40;99.90;;;;;;5052549;28;20094;-72
2022/08/11 05:58:52;;;;;;;6.50;3.25;;;28.60;99.90;;;;;;5052319;28;20080;-72
2022/08/11 06:01:41;;;;;;;6.38;3.40;;;28.40;99.90;;;;;;5052169;28;20417;-72
2022/08/11 06:04:15;;;;;;;5.68;3.35;;;29.00;99.90;;;;;;5049898;28;20028;-72
2022/08/11 06:07:02;;;;;;;4.80;3.22;;;29.30;99.90;;;;;;5052035;28;20033;-73
2022/08/11 06:09:47;;;;;;;6.97;3.17;;;29.20;99.90;;;;;;5051861;28;20036;-70
2022/08/11 06:12:31;;;;;;;4.38;3.28;;;29.40;99.90;;;;;;5050816;28;20100;-73
2022/08/11 06:15:04;;;;;;;4.07;3.00;;;30.40;99.90;;;;;;5051978;28;20024;-73
2022/08/11 06:17:33;;;;;;;6.38;3.03;;;31.90;97.90;;;;;;5051162;28;20487;-73
2022/08/11 06:20:04;;;;;;;8.23;2.80;;;32.90;95.80;;;;;;5053205;28;20484;-73
2022/08/11 06:22:32;;;;;;;3.58;2.50;;;34.00;93.50;;;;;;5052672;28;20096;-71
2022/08/11 06:25:03;;;;;;;5.72;2.50;;;34.70;91.90;;;;;;5051778;28;20029;-71
2022/08/11 06:27:32;;;;;;;3.95;2.30;;;35.80;90.30;;;;;;5052073;28;20477;-71
2022/08/11 06:29:59;;;;;;;5.63;2.60;;;35.30;90.00;;;;;;5052466;28;20025;-71
2022/08/11 06:32:31;;;;;;;3.67;2.40;;;34.90;89.90;;;;;;5052500;28;20469;-71
2022/08/11 06:35:22;;;;;;;4.75;2.88;;;34.30;90.40;;;;;;5052483;28;20027;-71
2022/08/11 06:38:05;;;;;;;3.40;2.30;;;33.90;91.10;;;;;;5052413;28;20029;-71
2022/08/11 06:43:51;;;;;;;3.92;2.42;;;33.60;90.90;;;;;;5052294;28;20095;-71
2022/08/11 06:46:30;;;;;;;5.30;2.70;;;33.80;91.10;;;;;;5051308;28;20485;-72
2022/08/11 06:49:01;;;;;;;4.75;2.13;;;34.00;90.80;;;;;;5052892;28;20017;-72
2022/08/11 06:51:28;;;;;;;4.45;2.38;;;34.50;90.50;;;;;;5052509;28;20025;-72
2022/08/11 06:53:58;;;;;;;4.20;2.42;;;34.80;90.20;;;;;;5052198;28;20021;-72
2022/08/11 07:02:15;;;;;;;4.03;2.00;;;36.00;87.20;;;;;;5052716;28;20128;-72
2022/08/11 07:04:59;;;;;;;6.03;2.17;;;37.40;85.00;;;;;;5052249;28;20043;-72
2022/08/11 07:16:40;;;;;;;3.78;1.92;;;38.80;81.10;;;;;;5054241;28;20035;-72
2022/08/11 07:30:29;;;;;;;4.05;2.00;;;35.50;87.50;;;;;;5055742;28;20086;-72
2022/08/11 07:32:59;;;;;;;4.45;2.03;;;35.30;86.00;;;;;;5055719;28;20422;-72
2022/08/11 07:35:34;;;;;;;4.55;2.22;;;35.00;86.70;;;;;;5055877;28;20085;-72
2022/08/11 07:38:06;;;;;;;3.60;2.10;;;34.80;87.60;;;;;;5055974;28;20017;-72
2022/08/11 07:40:33;;;;;;;4.95;2.10;;;34.70;87.80;;;;;;5055580;28;20036;-72
2022/08/11 07:43:00;;;;;;;7.97;2.45;;;34.30;89.20;;;;;;5055774;28;20021;-72
2022/08/11 07:53:46;;;;;;;3.47;1.95;;;33.70;90.90;;;;;;5055031;28;20060;-72
2022/08/11 07:56:14;;;;;;;7.43;2.70;;;34.10;90.10;;;;;;5052917;28;20067;-72
2022/08/11 08:18:05;;;;;;;8.40;2.67;;;34.00;91.00;;;;;;5054793;28;19912;-72
2022/08/11 08:20:39;;;;;;;14.27;9.25;;;34.30;91.50;;;;;;5053936;28;20484;-72
2022/08/11 08:23:06;;;;;;;9.60;2.60;;;34.50;91.40;;;;;;5055216;28;20029;-72
2022/08/11 08:25:35;;;;;;;7.97;3.10;;;34.60;91.80;;;;;;5054315;28;20036;-72
2022/08/11 08:28:05;;;;;;;10.02;6.78;;;34.90;91.60;;;;;;5053962;28;20021;-72
2022/08/11 08:30:51;;;;;;;6.28;2.60;;;35.30;91.60;;;;;;5054363;28;20048;-72
2022/08/11 08:33:20;;;;;;;7.22;2.78;;;35.40;91.30;;;;;;5054446;28;20461;-72
2022/08/11 08:36:14;;;;;;;7.93;3.13;;;35.50;91.10;;;;;;5054926;28;20100;-72
2022/08/11 08:38:48;;;;;;;11.80;2.70;;;35.50;91.30;;;;;;5054049;28;20036;-72
2022/08/11 08:41:22;;;;;;;9.07;3.13;;;35.10;91.50;;;;;;5054369;28;20029;-72
2022/08/11 08:43:52;;;;;;;7.22;3.20;;;34.40;92.00;;;;;;5054478;28;20033;-72
2022/08/11 08:46:22;;;;;;;9.45;3.17;;;34.20;92.40;;;;;;5054450;28;20139;-72
2022/08/11 08:48:49;;;;;;;4.50;2.90;;;33.90;92.80;;;;;;5054518;28;20078;-72
2022/08/11 08:51:34;;;;;;;7.25;2.95;;;33.80;93.50;;;;;;5054280;28;20029;-72
2022/08/11 08:54:22;;;;;;;13.35;3.10;;;33.60;94.10;;;;;;5053702;28;20029;-72
2022/08/11 08:56:53;;;;;;;12.50;3.65;;;33.20;95.10;;;;;;5053459;28;20033;-72
2022/08/11 08:59:23;;;;;;;7.50;3.60;;;32.80;95.70;;;;;;5053989;28;20071;-72
2022/08/11 09:01:57;;;;;;;8.55;3.28;;;32.60;96.20;;;;;;5053681;28;20477;-72
2022/08/11 09:04:24;;;;;;;6.57;2.75;;;32.30;96.60;;;;;;5053644;28;20370;-72
2022/08/11 09:06:59;;;;;;;5.97;2.85;;;32.10;97.00;;;;;;5053200;28;20041;-72
2022/08/11 09:09:26;;;;;;;9.10;3.20;;;31.50;97.60;;;;;;5053575;28;20021;-72
2022/08/11 09:11:53;;;;;;;8.90;3.70;;;31.40;98.50;;;;;;5053652;28;20108;-71
2022/08/11 09:14:23;;;;;;;11.68;4.13;;;31.40;99.40;;;;;;5053424;28;20036;-72
2022/08/11 09:16:55;;;;;;;15.45;3.42;;;31.60;99.20;;;;;;5052136;28;20025;-71
2022/08/11 09:19:22;;;;;;;6.13;3.30;;;31.50;99.90;;;;;;5053729;28;20033;-72
2022/08/11 09:26:58;;;;;;;10.95;3.60;;;31.60;99.90;;;;;;5053606;28;20440;-71
2022/08/11 09:27:30;;;;;;;7.28;3.72;;;32.30;99.40;;;;;;5044387;28;20067;-72
2022/08/11 09:29:57;;;;;;;8.88;3.72;;;32.40;98.90;;;;;;5053712;28;20110;-72
2022/08/11 09:32:25;;;;;;;7.68;3.58;;;32.40;99.30;;;;;;5053468;28;20048;-72
2022/08/11 09:34:51;;;;;;;8.10;4.07;;;32.40;99.00;;;;;;5053336;28;20397;-72
2022/08/11 09:45:38;;;;;;;7.35;2.97;;;32.80;99.10;;;;;;5052668;28;20113;-72
2022/08/11 09:48:06;;;;;;;11.18;3.58;;;32.70;99.90;;;;;;5052589;28;20040;-72
2022/08/11 09:50:38;;;;;;;6.55;3.33;;;32.00;99.90;;;;;;5052901;28;20361;-72
2022/08/11 09:53:05;;;;;;;6.95;3.38;;;31.60;99.90;;;;;;5052897;28;20025;-72
2022/08/11 09:55:32;;;;;;;5.68;3.50;;;31.00;99.90;;;;;;5052750;28;20051;-72
2022/08/11 09:58:15;;;;;;;6.35;3.50;;;30.80;99.90;;;;;;5052556;28;20025;-72
2022/08/11 10:00:42;;;;;;;8.32;3.67;;;30.70;99.90;;;;;;5052468;28;20021;-72
2022/08/11 10:03:24;;;;;;;8.50;3.75;;;30.50;99.90;;;;;;5052820;28;20025;-72
2022/08/11 10:08:44;;;;;;;9.93;3.65;;;30.20;99.90;;;;;;5052494;28;20036;-71
2022/08/11 10:11:17;;;;;;;11.23;4.10;;;30.30;99.90;;;;;;5052218;28;20021;-71
2022/08/11 10:16:34;;;;;;;8.05;4.13;;;30.00;99.90;;;;;;5052336;28;20163;-72
2022/08/11 10:19:03;;;;;;;9.65;4.00;;;29.80;99.90;;;;;;5052494;28;20021;-72
2022/08/11 10:21:29;;;;;;;9.95;4.15;;;29.80;99.90;;;;;;5052745;28;20060;-72
2022/08/11 10:26:53;;;;;;;14.43;4.30;;;30.00;99.90;;;;;;5052095;28;20061;-71
2022/08/11 10:35:13;;;;;;;7.82;3.47;;;30.30;99.90;;;;;;5052368;28;20366;-72
2022/08/11 10:37:43;;;;;;;7.03;3.47;;;30.50;99.90;;;;;;5052658;28;20078;-71
2022/08/11 10:40:14;;;;;;;8.05;4.00;;;30.70;99.90;;;;;;5052361;28;20380;-72
2022/08/11 10:48:17;;;;;;;9.98;4.60;;;30.30;99.90;;;;;;5052540;28;20036;-72
2022/08/11 10:59:09;;;;;;;12.63;4.90;;;29.30;99.90;;;;;;5055979;28;20055;-71
2022/08/11 11:01:40;;;;;;;8.95;3.28;;;29.30;99.90;;;;;;5056532;28;20346;-71
2022/08/11 11:04:18;;;;;;;9.05;3.00;;;29.00;99.90;;;;;;5056156;28;20029;-71
2022/08/11 11:07:05;;;;;;;7.88;3.10;;;28.80;99.90;;;;;;5056136;28;20033;-72
2022/08/11 11:09:42;;;;;;;5.55;3.25;;;28.80;99.90;;;;;;5055894;28;20029;-71
2022/08/11 11:18:23;;;;;;;5.70;2.90;;;28.80;99.90;;;;;;5056140;28;20090;-71
2022/08/11 11:21:09;;;;;;;6.70;4.03;;;28.60;99.90;;;;;;5056418;28;20029;-71
2022/08/11 11:24:10;;;;;;;7.13;4.15;;;28.20;99.90;;;;;;5056459;28;20025;-72
2022/08/11 11:26:57;;;;;;;6.32;4.18;;;27.90;99.90;;;;;;5055174;28;20067;-71
2022/08/11 11:29:49;;;;;;;4.80;4.07;;;28.10;99.90;;;;;;5053941;28;20024;-71
2022/08/11 11:32:35;;;;;;;6.75;4.15;;;28.40;99.90;;;;;;5055376;28;20033;-71
2022/08/11 11:35:25;;;;;;;7.32;4.22;;;28.50;99.90;;;;;;5056172;28;20453;-72
2022/08/11 11:37:52;;;;;;;7.28;4.13;;;28.60;99.90;;;;;;5055578;28;20363;-71
2022/08/11 11:40:21;;;;;;;6.70;3.60;;;28.80;99.90;;;;;;5055307;28;20031;-71
2022/08/11 11:42:49;;;;;;;4.32;3.22;;;28.90;99.90;;;;;;5055443;28;20029;-71
2022/08/11 11:45:21;;;;;;;5.13;3.20;;;29.00;99.90;;;;;;5055184;28;20037;-71
2022/08/11 11:47:51;;;;;;;4.40;2.67;;;29.50;99.90;;;;;;5055100;28;20060;-72
2022/08/11 11:50:36;;;;;;;6.07;3.10;;;29.90;99.90;;;;;;5055437;28;20043;-71
2022/08/11 11:53:12;;;;;;;4.28;3.03;;;29.70;99.90;;;;;;5054547;28;20087;-72
2022/08/11 11:55:39;;;;;;;5.13;3.13;;;29.90;99.90;;;;;;5054496;28;20037;-72
2022/08/11 12:03:38;;;;;;;4.78;3.10;;;30.50;99.40;;;;;;5053857;28;20036;-71
2022/08/11 12:06:08;;;;;;;6.30;2.45;;;30.50;98.40;;;;;;5054276;28;20441;-72
2022/08/11 12:08:35;;;;;;;4.53;2.33;;;30.40;97.80;;;;;;5052700;28;20028;-72
2022/08/11 12:13:51;;;;;;;4.82;2.63;;;30.50;98.00;;;;;;5054733;28;20540;-72
2022/08/11 12:16:20;;;;;;;5.07;2.55;;;30.50;96.60;;;;;;5054463;28;20025;-72
2022/08/11 12:18:48;;;;;;;3.35;2.20;;;30.60;96.50;;;;;;5055105;28;20450;-71
2022/08/11 12:21:15;;;;;;;4.32;2.60;;;30.50;96.70;;;;;;5055208;28;20104;-72
2022/08/11 12:29:18;;;;;;;5.82;3.25;;;30.90;99.90;;;;;;5054597;28;20358;-71
2022/08/11 12:31:45;;;;;;;4.70;3.28;;;31.30;99.90;;;;;;5054344;28;20102;-72
2022/08/11 12:34:16;;;;;;;6.53;3.58;;;31.50;99.90;;;;;;5054239;28;20024;-72
2022/08/11 12:37:00;;;;;;;7.82;3.85;;;31.80;99.90;;;;;;5054511;28;20029;-71
2022/08/11 12:53:25;;;;;;;;;;;32.40;99.90;;;;;;5053896;28;20068;-71
2022/08/11 12:58:40;;;;;;;4.93;3.10;;;32.30;99.10;;;;;;5053710;28;20485;-71
2022/08/11 13:06:37;;;;;;;5.88;2.60;;;32.40;98.30;;;;;;5053013;28;20418;-72
2022/08/11 13:09:05;;;;;;;3.40;2.42;;;32.50;97.70;;;;;;5052898;28;20113;-72
2022/08/11 13:14:17;;;;;;;8.63;2.83;;;32.60;96.80;;;;;;5053356;28;20147;-71
2022/08/11 13:19:31;;;;;;;5.30;2.80;;;32.50;96.80;;;;;;5053783;28;20123;-72
2022/08/11 13:21:57;;;;;;;4.35;3.03;;;32.20;97.00;;;;;;5053957;28;20032;-71
2022/08/11 13:24:24;;;;;;;5.05;3.10;;;32.20;98.70;;;;;;5053781;28;20032;-73
2022/08/11 13:26:50;;;;;;;5.53;2.85;;;32.20;98.50;;;;;;5051665;28;20090;-72
2022/08/11 13:29:22;;;;;;;5.05;3.00;;;32.00;98.30;;;;;;5052347;28;20448;-72
2022/08/11 13:31:48;;;;;;;6.28;3.22;;;32.00;99.20;;;;;;5053173;28;20025;-71
2022/08/11 13:34:17;;;;;;;5.60;2.90;;;32.10;99.40;;;;;;5053460;28;20036;-71
2022/08/11 13:36:44;;;;;;;6.68;2.80;;;32.10;99.80;;;;;;5051908;28;20032;-71
2022/08/11 13:39:11;;;;;;;7.57;3.67;;;31.90;99.90;;;;;;5053225;28;20080;-72
2022/08/11 13:41:41;;;;;;;8.73;3.40;;;32.10;99.90;;;;;;5053428;28;20031;-72
2022/08/11 13:44:12;;;;;;;6.10;3.10;;;32.00;99.90;;;;;;5051601;28;20166;-72
2022/08/11 13:46:39;;;;;;;6.93;3.05;;;32.10;99.90;;;;;;5052700;28;20463;-72
2022/08/11 13:49:10;;;;;;;6.93;3.17;;;32.20;99.90;;;;;;5052826;28;20025;-71
2022/08/11 13:51:38;;;;;;;9.98;3.33;;;32.40;99.90;;;;;;5053130;28;20429;-72
2022/08/11 13:54:08;;;;;;;8.43;3.20;;;32.50;99.90;;;;;;5051185;28;20318;-72
2022/08/11 13:56:38;;;;;;;7.28;3.35;;;32.50;99.90;;;;;;5052430;28;20363;-72
2022/08/11 13:59:07;;;;;;;8.48;3.10;;;32.50;99.90;;;;;;5052872;28;20025;-71
2022/08/11 14:01:39;;;;;;;5.70;2.80;;;32.60;99.90;;;;;;5052732;28;20369;-72
2022/08/11 14:04:24;;;;;;;8.75;2.92;;;32.50;99.90;;;;;;5052913;28;20025;-71
2022/08/11 14:06:53;;;;;;;12.63;3.80;;;32.40;99.90;;;;;;5052166;28;20033;-72
2022/08/11 14:09:27;;;;;;;4.55;3.30;;;32.30;99.90;;;;;;5052350;28;20060;-72
2022/08/11 14:14:46;;;;;;;8.90;3.17;;;32.20;99.90;;;;;;5052974;28;20545;-71
2022/08/11 14:17:16;;;;;;;5.78;3.20;;;32.50;99.90;;;;;;5052317;28;20107;-72
2022/08/11 14:19:46;;;;;;;7.57;3.08;;;32.60;99.90;;;;;;5052599;28;20025;-72
2022/08/11 14:22:18;;;;;;;5.80;3.00;;;32.70;99.90;;;;;;5052635;28;20063;-72
2022/08/11 14:24:48;;;;;;;5.28;2.75;;;32.50;99.90;;;;;;5050207;28;20017;-72
2022/08/11 14:27:16;;;;;;;5.70;3.00;;;32.70;99.90;;;;;;5051889;28;20128;-72
2022/08/11 14:29:44;;;;;;;8.05;3.25;;;32.60;99.90;;;;;;5052003;28;20036;-72
2022/08/11 14:32:13;;;;;;;6.18;3.20;;;32.70;99.90;;;;;;5052152;28;20036;-72
2022/08/11 14:34:41;;;;;;;7.28;3.13;;;32.70;99.90;;;;;;5051689;28;20029;-71
2022/08/11 14:37:11;;;;;;;6.43;3.17;;;32.60;99.90;;;;;;5051866;28;20028;-71
2022/08/11 14:39:44;;;;;;;7.03;2.97;;;32.70;99.90;;;;;;5051600;28;20074;-72
2022/08/11 14:47:59;;;;;;;8.57;3.50;;;32.40;99.90;;;;;;5052029;28;20048;-72
2022/08/11 14:50:28;;;;;;;6.75;2.92;;;32.00;99.90;;;;;;5051038;28;20037;-72
2022/08/11 14:52:58;;;;;;;6.25;2.90;;;32.30;99.90;;;;;;5050995;28;20071;-72
2022/08/11 14:58:18;;;;;;;5.32;2.60;;;32.80;99.90;;;;;;5051624;28;20547;-72
2022/08/11 15:00:44;;;;;;;5.07;2.70;;;33.00;99.80;;;;;;5051346;28;20025;-72
2022/08/11 15:03:13;;;;;;;5.45;2.60;;;33.00;99.90;;;;;;5051293;28;20029;-72
2022/08/11 15:05:48;;;;;;;6.90;3.38;;;33.10;99.90;;;;;;5051301;28;20079;-72
2022/08/11 15:08:15;;;;;;;6.65;2.70;;;33.20;99.90;;;;;;5051019;28;20112;-72
2022/08/11 15:10:42;;;;;;;6.70;2.80;;;33.00;99.50;;;;;;5049595;28;20036;-72
2022/08/11 15:13:09;;;;;;;5.55;2.55;;;32.70;99.90;;;;;;5051696;28;20029;-72
2022/08/11 15:18:35;;;;;;;6.82;2.83;;;32.10;99.90;;;;;;5039404;28;20033;-71
2022/08/11 15:37:51;;;;;;;8.13;4.25;;;29.60;99.90;;;;;;5053291;28;19950;-71
2022/08/11 15:46:21;;;;;;;9.88;5.30;;;29.00;99.90;;;;;;5054431;28;20087;-71
2022/08/11 15:48:56;;;;;;;10.18;3.67;;;29.10;99.90;;;;;;5054751;28;20025;-71
2022/08/11 15:51:50;;;;;;;8.70;3.80;;;29.20;99.90;;;;;;5054415;28;20104;-71
2022/08/11 15:54:22;;;;;;;8.65;3.83;;;29.30;99.90;;;;;;5053188;28;20041;-71
2022/08/11 15:56:51;;;;;;;5.80;3.72;;;29.20;99.90;;;;;;5053505;28;20338;-72
2022/08/11 16:04:10;;;;;;;9.38;3.50;;;28.60;99.90;;;;;;5053817;28;20087;-72
2022/08/11 16:05:01;;;;;;;10.98;3.67;;;27.60;99.90;;;;;;5053236;28;20074;-71
2022/08/11 16:07:30;;;;;;;4.63;2.60;;;26.80;99.90;;;;;;5054057;28;20095;-72
2022/08/11 16:10:09;;;;;;;5.28;3.00;;;26.40;99.90;;;;;;5053137;28;20025;-72
2022/08/11 16:16:17;;;;;;;4.32;2.78;;;26.20;99.90;;;;;;5053210;28;20032;-70
2022/08/11 16:19:00;;;;;;;5.07;2.83;;;26.10;99.90;;;;;;5052081;28;20187;-71
2022/08/11 16:21:31;;;;;;;6.57;2.88;;;25.70;99.90;;;;;;5054097;28;20076;-71
2022/08/11 16:23:59;;;;;;;6.10;2.65;;;25.80;99.90;;;;;;5053903;28;20036;-71
2022/08/11 16:26:28;;;;;;;5.72;2.65;;;25.90;99.90;;;;;;5053560;28;20052;-70
2022/08/11 16:28:57;;;;;;;5.88;2.50;;;26.00;99.90;;;;;;5054284;28;20021;-71
2022/08/11 16:31:24;;;;;;;5.28;2.63;;;26.10;99.90;;;;;;5054259;28;20104;-71
2022/08/11 16:33:52;;;;;;;4.47;2.30;;;26.10;99.90;;;;;;5053812;28;20508;-70
2022/08/11 16:39:07;;;;;;;4.35;2.00;;;26.10;99.90;;;;;;5053731;28;20167;-71
2022/08/11 16:47:25;;;;;;;5.40;2.00;;;25.80;99.90;;;;;;5031009;28;20552;-71
2022/08/11 16:49:54;;;;;;;8.10;2.42;;;25.90;99.90;;;;;;5048877;28;20041;-71
2022/08/11 16:52:23;;;;;;;7.18;1.95;;;25.90;99.90;;;;;;5053574;28;20025;-72
2022/08/11 16:54:49;;;;;;;3.22;2.00;;;25.80;99.90;;;;;;5052929;28;20032;-71
2022/08/11 17:00:11;;;;;;;3.42;1.67;;;25.70;99.90;;;;;;5053223;28;20131;-71
2022/08/11 17:14:58;;;;;;;4.88;1.67;;;26.00;99.90;;;;;;5052721;28;20032;-70
2022/08/11 17:17:29;;;;;;;4.93;1.98;;;26.00;99.90;;;;;;5052992;28;20025;-70
2022/08/11 17:20:01;;;;;;;6.20;2.08;;;25.80;99.90;;;;;;5052891;28;20032;-70
2022/08/11 17:25:16;;;;;;;3.08;2.30;;;25.70;99.90;;;;;;5052691;28;20495;-71
2022/08/11 17:27:44;;;;;;;3.47;2.20;;;25.70;99.90;;;;;;5052913;28;20045;-71
2022/08/11 17:30:12;;;;;;;7.95;2.60;;;25.70;99.90;;;;;;5052415;28;20021;-70
2022/08/11 17:35:43;;;;;;;4.82;2.05;;;25.60;99.90;;;;;;5053108;28;20090;-71
2022/08/11 17:38:14;;;;;;;4.47;2.03;;;25.70;99.90;;;;;;5052911;28;20119;-71
2022/08/11 17:49:07;;;;;;;7.63;3.07;;;26.00;99.90;;;;;;5052546;28;20500;-71
2022/08/11 17:59:56;;;;;;;4.03;2.30;;;25.80;99.90;;;;;;5051256;28;19972;-70
2022/08/11 18:05:19;;;;;;;7.18;2.83;;;25.70;99.90;;;;;;5051678;28;20074;-70
